createdAt,value
2018-11-11T00:02:07.602Z,66.60
2018-11-11T00:04:35.863Z,66.60
2018-11-11T00:07:04.172Z,66.70
2018-11-11T00:09:32.446Z,66.70
2018-11-11T00:12:00.706Z,66.70
2018-11-11T00:14:29.005Z,66.80
2018-11-11T00:16:57.262Z,66.80
2018-11-11T00:19:25.534Z,66.90
2018-11-11T00:21:53.859Z,66.90
2018-11-11T00:24:22.117Z,66.90
2018-11-11T00:26:50.494Z,67.00
2018-11-11T00:29:18.785Z,67.00
2018-11-11T00:31:47.066Z,67.00
2018-11-11T00:34:15.594Z,67.10
2018-11-11T00:36:43.889Z,67.80
2018-11-11T00:39:12.170Z,67.40
2018-11-11T00:41:40.503Z,67.20
2018-11-11T00:44:08.961Z,67.40
2018-11-11T00:46:37.479Z,67.20
2018-11-11T00:49:06.386Z,67.30
2018-11-11T00:51:34.740Z,67.40
2018-11-11T00:54:03.034Z,67.60
2018-11-11T00:56:31.347Z,67.50
2018-11-11T00:58:59.645Z,67.40
2018-11-11T01:01:28.003Z,67.50
2018-11-11T01:03:56.324Z,67.60
2018-11-11T01:06:24.606Z,67.70
2018-11-11T01:08:52.967Z,67.70
2018-11-11T01:11:21.263Z,68.10
2018-11-11T01:13:49.563Z,68.20
2018-11-11T01:16:17.974Z,67.70
2018-11-11T01:18:46.300Z,67.70
2018-11-11T01:21:14.618Z,67.70
2018-11-11T01:23:42.911Z,67.90
2018-11-11T01:26:11.235Z,67.70
2018-11-11T01:28:39.579Z,67.70
2018-11-11T01:31:07.988Z,67.90
2018-11-11T01:33:36.275Z,67.90
2018-11-11T01:36:04.724Z,67.80
2018-11-11T01:38:33.073Z,67.70
2018-11-11T01:41:01.372Z,68.00
2018-11-11T01:43:29.678Z,67.80
2018-11-11T01:45:57.970Z,68.10
2018-11-11T01:48:26.283Z,68.00
2018-11-11T01:50:54.578Z,67.90
2018-11-11T01:53:22.875Z,67.90
2018-11-11T01:55:51.160Z,68.00
2018-11-11T01:58:19.479Z,68.00
2018-11-11T02:00:47.763Z,68.40
2018-11-11T02:03:16.057Z,68.00
2018-11-11T02:05:44.420Z,68.30
2018-11-11T02:08:12.730Z,68.10
2018-11-11T02:10:41.042Z,68.10
2018-11-11T02:13:09.360Z,68.10
2018-11-11T02:15:37.660Z,68.00
2018-11-11T02:18:06.109Z,68.20
2018-11-11T02:20:34.404Z,68.20
2018-11-11T02:23:02.728Z,68.30
2018-11-11T02:25:31.035Z,68.10
2018-11-11T02:27:59.327Z,68.10
2018-11-11T02:30:27.636Z,68.10
2018-11-11T02:32:55.967Z,69.00
2018-11-11T02:35:24.291Z,68.20
2018-11-11T02:37:52.598Z,68.20
2018-11-11T02:40:20.979Z,68.20
2018-11-11T02:42:49.865Z,68.10
2018-11-11T02:45:19.171Z,68.30
2018-11-11T02:47:47.483Z,68.20
2018-11-11T02:50:17.184Z,68.30
2018-11-11T02:52:45.964Z,68.70
2018-11-11T02:55:14.603Z,68.30
2018-11-11T02:57:43.474Z,68.40
2018-11-11T03:00:13.859Z,68.80
2018-11-11T03:02:42.999Z,68.40
2018-11-11T03:05:12.800Z,68.80
2018-11-11T03:07:41.107Z,68.60
2018-11-11T03:10:10.691Z,68.50
2018-11-11T03:12:39.382Z,68.60
2018-11-11T03:15:08.799Z,68.50
2018-11-11T03:17:37.387Z,68.50
2018-11-11T03:20:06.357Z,68.50
2018-11-11T03:22:34.683Z,68.70
2018-11-11T03:25:03.366Z,68.70
2018-11-11T03:27:31.695Z,68.60
2018-11-11T03:29:59.972Z,68.50
2018-11-11T03:32:28.263Z,68.90
2018-11-11T03:34:56.534Z,68.90
2018-11-11T03:37:24.839Z,69.00
2018-11-11T03:39:53.288Z,69.50
2018-11-11T03:42:21.574Z,69.00
2018-11-11T03:44:49.887Z,68.70
2018-11-11T03:47:18.187Z,68.70
2018-11-11T03:49:46.497Z,68.80
2018-11-11T03:52:14.807Z,68.70
2018-11-11T03:54:43.761Z,68.80
2018-11-11T03:57:12.095Z,68.80
2018-11-11T03:59:40.399Z,68.80
2018-11-11T04:02:09.082Z,68.80
2018-11-11T04:04:37.419Z,68.80
2018-11-11T04:07:05.788Z,68.70
2018-11-11T04:09:34.158Z,68.70
2018-11-11T04:12:02.487Z,68.80
2018-11-11T04:14:30.862Z,68.70
2018-11-11T04:16:59.158Z,68.70
2018-11-11T04:19:27.454Z,68.70
2018-11-11T04:21:55.783Z,68.70
2018-11-11T04:24:24.111Z,68.80
2018-11-11T04:26:52.479Z,68.80
2018-11-11T04:29:20.775Z,68.80
2018-11-11T04:31:49.051Z,68.80
2018-11-11T04:34:17.359Z,68.80
2018-11-11T04:36:45.697Z,69.80
2018-11-11T04:39:14.065Z,68.80
2018-11-11T04:41:42.291Z,68.80
2018-11-11T04:44:10.572Z,68.80
2018-11-11T04:46:38.866Z,68.80
2018-11-11T04:49:07.265Z,68.80
2018-11-11T04:51:35.526Z,68.80
2018-11-11T04:54:03.863Z,68.80
2018-11-11T04:56:32.200Z,68.80
2018-11-11T04:59:00.479Z,68.80
2018-11-11T05:01:28.873Z,68.80
2018-11-11T05:03:57.162Z,69.70
2018-11-11T05:06:25.443Z,68.90
2018-11-11T05:08:53.751Z,68.90
2018-11-11T05:11:22.050Z,68.90
2018-11-11T05:13:50.362Z,68.90
2018-11-11T05:16:18.667Z,68.90
2018-11-11T05:18:46.988Z,69.00
2018-11-11T05:21:15.296Z,69.00
2018-11-11T05:23:43.583Z,69.00
2018-11-11T05:26:11.878Z,69.00
2018-11-11T05:28:40.173Z,69.00
2018-11-11T05:31:08.503Z,69.00
2018-11-11T05:33:36.806Z,69.00
2018-11-11T05:36:06.072Z,69.00
2018-11-11T05:38:34.386Z,69.00
2018-11-11T05:41:02.681Z,69.10
2018-11-11T05:43:31.618Z,69.00
2018-11-11T05:45:59.902Z,69.10
2018-11-11T05:48:28.691Z,69.00
2018-11-11T05:50:56.970Z,69.10
2018-11-11T05:53:25.291Z,69.10
2018-11-11T05:55:53.591Z,69.10
2018-11-11T05:58:21.967Z,69.20
2018-11-11T06:00:50.285Z,69.10
2018-11-11T06:03:18.612Z,69.10
2018-11-11T06:05:46.962Z,69.10
2018-11-11T06:08:15.322Z,69.10
2018-11-11T06:10:43.606Z,69.10
2018-11-11T06:13:11.931Z,69.10
2018-11-11T06:15:40.387Z,69.20
2018-11-11T06:18:08.694Z,69.20
2018-11-11T06:20:37.768Z,69.60
2018-11-11T06:23:06.180Z,69.30
2018-11-11T06:25:34.463Z,69.20
2018-11-11T06:28:02.815Z,69.30
2018-11-11T06:30:31.223Z,69.30
2018-11-11T06:32:59.506Z,69.30
2018-11-11T06:35:27.857Z,69.40
2018-11-11T06:37:56.171Z,69.30
2018-11-11T06:40:24.489Z,69.40
2018-11-11T06:42:52.788Z,70.00
2018-11-11T06:45:21.110Z,69.70
2018-11-11T06:47:49.445Z,70.00
2018-11-11T06:50:17.730Z,70.90
2018-11-11T06:52:46.046Z,70.50
2018-11-11T06:55:14.411Z,70.40
2018-11-11T06:57:42.727Z,70.10
2018-11-11T07:00:13.032Z,70.30
2018-11-11T07:02:51.275Z,70.20
2018-11-11T07:05:19.870Z,70.30
2018-11-11T07:07:48.214Z,70.50
2018-11-11T07:10:21.140Z,71.60
2018-11-11T07:12:53.398Z,72.90
2018-11-11T07:15:21.758Z,73.80
2018-11-11T07:17:50.062Z,74.10
2018-11-11T07:20:18.400Z,74.10
2018-11-11T07:22:47.137Z,74.10
2018-11-11T07:25:15.438Z,74.00
2018-11-11T07:27:43.782Z,74.30
2018-11-11T07:30:12.072Z,74.00
2018-11-11T07:32:40.362Z,73.90
2018-11-11T07:35:13.619Z,74.10
2018-11-11T07:37:41.899Z,73.80
2018-11-11T07:40:12.689Z,73.60
2018-11-11T07:42:41.480Z,74.40
2018-11-11T07:45:09.845Z,73.40
2018-11-11T07:47:38.224Z,73.30
2018-11-11T07:50:09.986Z,73.40
2018-11-11T07:52:38.473Z,73.70
2018-11-11T07:55:08.356Z,73.50
2018-11-11T07:57:37.369Z,73.50
2018-11-11T08:00:08.110Z,73.40
2018-11-11T08:02:39.346Z,73.30
2018-11-11T08:05:07.771Z,73.30
2018-11-11T08:07:36.063Z,73.40
2018-11-11T08:10:04.513Z,73.30
2018-11-11T08:12:33.261Z,73.20
2018-11-11T08:15:01.618Z,73.20
2018-11-11T08:17:29.994Z,73.30
2018-11-11T08:19:58.291Z,73.20
2018-11-11T08:22:26.659Z,73.10
2018-11-11T08:24:54.974Z,73.30
2018-11-11T08:27:23.337Z,73.00
2018-11-11T08:29:51.647Z,72.70
2018-11-11T08:32:19.984Z,73.10
2018-11-11T08:34:48.311Z,72.90
2018-11-11T08:37:16.606Z,73.10
2018-11-11T08:39:44.943Z,72.50
2018-11-11T08:42:13.271Z,72.50
2018-11-11T08:44:41.611Z,72.20
2018-11-11T08:47:09.940Z,72.60
2018-11-11T08:49:38.267Z,72.40
2018-11-11T08:52:06.644Z,72.80
2018-11-11T08:54:34.947Z,72.50
2018-11-11T08:57:03.261Z,72.80
2018-11-11T08:59:31.554Z,73.10
2018-11-11T09:02:01.079Z,74.00
2018-11-11T09:04:29.395Z,73.00
2018-11-11T09:06:58.300Z,73.00
2018-11-11T09:09:26.636Z,72.90
2018-11-11T09:11:54.914Z,73.60
2018-11-11T09:14:23.234Z,73.00
2018-11-11T09:16:51.534Z,72.50
2018-11-11T09:19:19.928Z,72.60
2018-11-11T09:21:48.243Z,72.50
2018-11-11T09:24:16.567Z,73.00
2018-11-11T09:26:44.880Z,72.30
2018-11-11T09:29:13.214Z,72.70
2018-11-11T09:31:41.505Z,72.30
2018-11-11T09:34:09.826Z,72.20
2018-11-11T09:36:38.134Z,71.90
2018-11-11T09:39:09.591Z,72.40
2018-11-11T09:41:39.242Z,72.30
2018-11-11T09:44:09.063Z,72.00
2018-11-11T09:46:38.556Z,71.80
2018-11-11T09:49:06.879Z,71.70
2018-11-11T09:51:35.197Z,71.90
2018-11-11T09:54:03.598Z,71.60
2018-11-11T09:56:31.923Z,71.30
2018-11-11T09:59:00.220Z,71.10
2018-11-11T10:01:28.907Z,71.30
2018-11-11T10:04:02.659Z,70.80
2018-11-11T10:06:49.933Z,70.70
2018-11-11T10:09:29.978Z,70.70
2018-11-11T10:12:02.564Z,70.70
2018-11-11T10:14:37.191Z,70.60
2018-11-11T10:17:11.391Z,70.30
2018-11-11T10:19:45.043Z,70.60
2018-11-11T10:22:18.481Z,70.50
2018-11-11T10:24:55.267Z,70.80
2018-11-11T10:27:33.578Z,71.00
2018-11-11T10:30:07.147Z,70.10
2018-11-11T10:33:56.137Z,70.50
2018-11-11T10:36:29.699Z,70.20
2018-11-11T10:39:05.961Z,70.20
2018-11-11T10:43:43.708Z,69.60
2018-11-11T10:47:18.351Z,69.50
2018-11-11T10:49:51.388Z,69.60
2018-11-11T10:52:19.773Z,69.90
2018-11-11T10:54:48.100Z,69.60
2018-11-11T10:57:16.404Z,69.50
2018-11-11T10:59:44.726Z,69.40
2018-11-11T11:02:18.998Z,69.30
2018-11-11T11:04:52.874Z,69.30
2018-11-11T11:07:21.243Z,69.80
2018-11-11T11:09:49.978Z,70.10
2018-11-11T11:12:19.822Z,69.30
2018-11-11T11:14:48.171Z,69.60
2018-11-11T11:17:16.462Z,69.90
2018-11-11T11:19:44.755Z,69.60
2018-11-11T11:22:13.120Z,69.70
2018-11-11T11:24:41.395Z,69.50
2018-11-11T11:27:09.746Z,69.50
2018-11-11T11:29:38.007Z,69.10
2018-11-11T11:32:06.409Z,69.10
2018-11-11T11:34:34.671Z,69.00
2018-11-11T11:37:02.971Z,68.90
2018-11-11T11:39:31.298Z,69.00
2018-11-11T11:41:59.596Z,68.90
2018-11-11T11:44:27.961Z,68.60
2018-11-11T11:46:56.271Z,68.30
2018-11-11T11:49:24.647Z,68.10
2018-11-11T11:51:52.975Z,68.50
2018-11-11T11:54:21.261Z,68.30
2018-11-11T11:56:49.614Z,68.10
2018-11-11T11:59:17.918Z,68.00
2018-11-11T12:01:46.230Z,68.20
2018-11-11T12:04:14.579Z,67.90
2018-11-11T12:06:42.899Z,67.90
2018-11-11T12:09:11.823Z,67.90
2018-11-11T12:11:40.397Z,68.40
2018-11-11T12:14:08.891Z,67.90
2018-11-11T12:16:37.267Z,68.00
2018-11-11T12:19:06.326Z,67.90
2018-11-11T12:21:34.650Z,68.40
2018-11-11T12:24:03.016Z,67.90
2018-11-11T12:26:31.310Z,68.70
2018-11-11T12:28:59.627Z,68.10
2018-11-11T12:31:27.923Z,68.50
2018-11-11T12:36:30.930Z,68.20
2018-11-11T12:38:59.383Z,68.20
2018-11-11T12:41:27.644Z,68.40
2018-11-11T12:43:55.967Z,68.10
2018-11-11T12:46:24.255Z,68.00
2018-11-11T12:48:52.569Z,68.10
2018-11-11T12:51:20.875Z,69.00
2018-11-11T12:53:49.900Z,68.20
2018-11-11T12:56:18.196Z,68.90
2018-11-11T12:58:46.494Z,68.10
2018-11-11T13:01:14.871Z,68.00
2018-11-11T13:03:43.158Z,68.10
2018-11-11T13:06:11.484Z,68.20
2018-11-11T13:08:39.791Z,68.10
2018-11-11T13:11:08.879Z,68.20
2018-11-11T13:13:37.245Z,68.00
2018-11-11T13:16:06.188Z,68.90
2018-11-11T13:18:34.488Z,68.30
2018-11-11T13:21:02.921Z,69.10
2018-11-11T13:23:31.371Z,70.40
2018-11-11T13:25:59.966Z,70.40
2018-11-11T13:28:28.890Z,70.10
2018-11-11T13:30:57.264Z,69.80
2018-11-11T13:33:26.251Z,69.50
2018-11-11T13:35:54.962Z,69.00
2018-11-11T13:38:23.559Z,68.70
2018-11-11T13:40:51.889Z,68.70
2018-11-11T13:43:21.008Z,68.40
2018-11-11T13:45:49.293Z,68.30
2018-11-11T13:48:17.671Z,68.00
2018-11-11T13:50:46.187Z,67.90
2018-11-11T13:53:14.549Z,67.90
2018-11-11T13:55:49.710Z,67.70
2018-11-11T13:58:17.996Z,67.70
2018-11-11T14:00:46.310Z,67.70
2018-11-11T14:03:14.639Z,67.70
2018-11-11T14:05:43.006Z,67.60
2018-11-11T14:08:11.310Z,67.60
2018-11-11T14:10:39.578Z,67.60
2018-11-11T14:13:08.276Z,67.40
2018-11-11T14:15:36.639Z,67.40
2018-11-11T14:18:05.369Z,67.20
2018-11-11T14:20:34.257Z,67.30
2018-11-11T14:23:02.571Z,67.20
2018-11-11T14:25:30.919Z,67.10
2018-11-11T14:27:59.227Z,67.10
2018-11-11T14:30:28.395Z,67.10
2018-11-11T14:32:57.627Z,67.00
2018-11-11T14:35:25.976Z,66.90
2018-11-11T14:37:54.307Z,66.90
2018-11-11T14:40:27.987Z,67.00
2018-11-11T14:42:56.343Z,66.80
2018-11-11T14:45:25.118Z,66.90
2018-11-11T14:47:54.632Z,67.00
2018-11-11T14:50:24.098Z,67.00
2018-11-11T14:52:52.616Z,67.10
2018-11-11T14:55:23.505Z,67.00
2018-11-11T14:57:53.576Z,67.00
2018-11-11T15:00:23.531Z,66.40
2018-11-11T15:03:06.224Z,66.90
2018-11-11T15:05:34.706Z,67.00
2018-11-11T15:08:03.181Z,66.90
2018-11-11T15:10:31.568Z,67.00
2018-11-11T15:13:00.139Z,67.00
2018-11-11T15:15:28.659Z,67.00
2018-11-11T15:17:58.096Z,66.80
2018-11-11T15:20:27.524Z,66.90
2018-11-11T15:22:55.736Z,66.90
2018-11-11T15:25:25.604Z,67.20
2018-11-11T15:27:54.321Z,67.30
2018-11-11T15:30:25.910Z,67.30
2018-11-11T15:32:54.933Z,67.30
2018-11-11T15:35:23.431Z,67.50
2018-11-11T15:37:52.063Z,67.60
2018-11-11T15:40:23.575Z,67.70
2018-11-11T15:42:51.939Z,68.50
2018-11-11T15:45:21.593Z,67.80
2018-11-11T15:47:50.074Z,67.70
2018-11-11T15:50:20.286Z,67.50
2018-11-11T15:52:50.134Z,67.60
2018-11-11T15:55:20.066Z,67.60
2018-11-11T15:57:48.478Z,67.70
2018-11-11T16:00:20.231Z,67.70
2018-11-11T16:02:48.636Z,67.80
2018-11-11T16:05:17.718Z,67.90
2018-11-11T16:07:46.827Z,67.90
2018-11-11T16:10:19.599Z,67.90
2018-11-11T16:12:48.102Z,68.00
2018-11-11T16:15:19.029Z,68.00
2018-11-11T16:17:48.780Z,68.10
2018-11-11T16:20:19.990Z,68.10
2018-11-11T16:22:50.159Z,68.20
2018-11-11T16:25:18.625Z,68.20
2018-11-11T16:27:53.762Z,68.30
2018-11-11T16:30:24.298Z,68.30
2018-11-11T16:32:53.190Z,68.40
2018-11-11T16:35:23.200Z,68.40
2018-11-11T16:37:51.527Z,68.50
2018-11-11T16:40:21.210Z,68.50
2018-11-11T16:42:50.006Z,68.60
2018-11-11T16:45:20.525Z,68.60
2018-11-11T16:47:48.878Z,68.60
2018-11-11T16:50:19.386Z,68.60
2018-11-11T16:52:48.519Z,68.60
2018-11-11T16:55:18.644Z,68.70
2018-11-11T16:57:46.967Z,68.70
2018-11-11T17:00:20.563Z,68.70
2018-11-11T17:02:49.352Z,68.80
2018-11-11T17:05:19.105Z,68.90
2018-11-11T17:07:47.637Z,68.90
2018-11-11T17:10:18.299Z,69.00
2018-11-11T17:12:47.481Z,69.10
2018-11-11T17:15:20.984Z,69.00
2018-11-11T17:17:49.290Z,69.00
2018-11-11T17:20:18.903Z,69.10
2018-11-11T17:22:48.117Z,69.10
2018-11-11T17:25:17.182Z,69.20
2018-11-11T17:27:46.112Z,69.20
2018-11-11T17:30:19.366Z,69.30
2018-11-11T17:32:48.497Z,69.30
2018-11-11T17:35:16.793Z,69.30
2018-11-11T17:37:45.133Z,69.20
2018-11-11T17:40:16.464Z,69.30
2018-11-11T17:42:45.774Z,69.40
2018-11-11T17:45:14.441Z,69.40
2018-11-11T17:47:43.475Z,69.40
2018-11-11T17:50:15.161Z,69.50
2018-11-11T17:52:43.523Z,69.50
2018-11-11T17:55:13.263Z,69.50
2018-11-11T17:57:41.848Z,69.50
2018-11-11T18:00:12.114Z,69.50
2018-11-11T18:02:40.555Z,69.50
2018-11-11T18:05:11.161Z,69.50
2018-11-11T18:07:39.483Z,69.50
2018-11-11T18:10:09.764Z,69.40
2018-11-11T18:12:38.286Z,69.50
2018-11-11T18:15:07.535Z,69.40
2018-11-11T18:17:35.835Z,69.40
2018-11-11T18:20:04.992Z,69.90
2018-11-11T18:22:33.328Z,69.40
2018-11-11T18:25:01.667Z,69.40
2018-11-11T18:27:30.120Z,69.40
2018-11-11T18:29:58.325Z,69.50
2018-11-11T18:32:26.619Z,69.60
2018-11-11T18:34:54.939Z,69.60
2018-11-11T18:37:23.263Z,69.50
2018-11-11T18:39:51.609Z,69.40
2018-11-11T18:42:19.874Z,69.60
2018-11-11T18:44:48.204Z,69.50
2018-11-11T18:47:16.495Z,69.50
2018-11-11T18:49:44.867Z,69.50
2018-11-11T18:52:13.196Z,69.50
2018-11-11T18:54:41.512Z,69.60
2018-11-11T18:57:09.897Z,69.60
2018-11-11T18:59:38.125Z,69.70
2018-11-11T19:02:06.469Z,69.80
2018-11-11T19:04:34.848Z,69.80
2018-11-11T19:07:03.277Z,69.90
2018-11-11T19:09:31.773Z,69.90
2018-11-11T19:12:00.110Z,69.90
2018-11-11T19:14:28.615Z,70.00
2018-11-11T19:16:56.966Z,70.00
2018-11-11T19:19:25.273Z,70.00
2018-11-11T19:21:53.588Z,70.00
2018-11-11T19:24:21.983Z,70.10
2018-11-11T19:26:50.207Z,70.10
2018-11-11T19:29:18.543Z,70.10
2018-11-11T19:31:47.352Z,70.10
2018-11-11T19:34:15.671Z,70.10
2018-11-11T19:36:43.986Z,70.20
2018-11-11T19:39:12.979Z,70.10
2018-11-11T19:41:41.941Z,70.10
2018-11-11T19:44:10.540Z,70.20
2018-11-11T19:46:38.854Z,70.20
2018-11-11T19:49:07.189Z,70.20
2018-11-11T19:51:35.505Z,70.20
2018-11-11T19:54:04.130Z,70.30
2018-11-11T19:56:32.482Z,70.20
2018-11-11T19:59:00.772Z,70.30
2018-11-11T20:01:29.133Z,70.40
2018-11-11T20:03:57.438Z,70.40
2018-11-11T20:06:25.718Z,70.30
2018-11-11T20:08:54.119Z,70.50
2018-11-11T20:11:22.514Z,70.30
2018-11-11T20:13:50.818Z,70.30
2018-11-11T20:16:19.144Z,70.30
2018-11-11T20:18:47.470Z,70.30
2018-11-11T20:21:16.558Z,70.30
2018-11-11T20:23:44.861Z,70.20
2018-11-11T20:26:13.172Z,70.30
2018-11-11T20:28:41.521Z,70.20
2018-11-11T20:31:09.834Z,70.20
2018-11-11T20:33:38.491Z,70.30
2018-11-11T20:36:06.836Z,70.20
2018-11-11T20:38:35.338Z,70.30
2018-11-11T20:41:03.644Z,70.30
2018-11-11T20:43:31.959Z,70.30
2018-11-11T20:46:06.082Z,70.20
2018-11-11T20:48:34.398Z,70.20
2018-11-11T20:51:02.743Z,70.20
2018-11-11T20:53:31.036Z,70.20
2018-11-11T20:55:59.373Z,70.20
2018-11-11T20:58:27.664Z,70.30
2018-11-11T21:00:56.004Z,70.20
2018-11-11T21:03:24.326Z,70.20
2018-11-11T21:05:52.659Z,70.20
2018-11-11T21:08:20.988Z,70.20
2018-11-11T21:10:49.363Z,70.20
2018-11-11T21:13:17.686Z,70.20
2018-11-11T21:15:45.990Z,70.20
2018-11-11T21:18:14.416Z,70.20
2018-11-11T21:20:42.851Z,70.10
2018-11-11T21:23:11.179Z,70.10
2018-11-11T21:25:39.999Z,70.10
2018-11-11T21:28:08.295Z,70.10
2018-11-11T21:30:36.650Z,70.10
2018-11-11T21:33:04.987Z,70.10
2018-11-11T21:35:33.335Z,70.20
2018-11-11T21:38:01.724Z,70.10
2018-11-11T21:40:30.035Z,70.20
2018-11-11T21:42:58.355Z,70.20
2018-11-11T21:45:27.576Z,70.90
2018-11-11T21:47:55.867Z,70.10
2018-11-11T21:50:25.247Z,70.10
2018-11-11T21:53:05.000Z,70.10
2018-11-11T21:55:33.303Z,70.10
2018-11-11T21:58:01.603Z,70.20
2018-11-11T22:00:29.953Z,70.20
2018-11-11T22:02:58.402Z,70.30
2018-11-11T22:05:26.811Z,70.30
2018-11-11T22:07:55.031Z,70.30
2018-11-11T22:10:23.359Z,70.40
2018-11-11T22:12:51.653Z,70.40
2018-11-11T22:15:19.970Z,70.50
2018-11-11T22:17:48.300Z,70.40
2018-11-11T22:20:16.598Z,70.40
2018-11-11T22:22:44.939Z,70.40
2018-11-11T22:25:13.252Z,70.50
2018-11-11T22:27:41.559Z,70.50
2018-11-11T22:30:11.254Z,70.40
2018-11-11T22:32:39.750Z,70.40
2018-11-11T22:35:09.706Z,70.40
2018-11-11T22:37:37.997Z,70.40
2018-11-11T22:40:07.876Z,70.40
2018-11-11T22:42:36.347Z,70.50
2018-11-11T22:45:06.451Z,70.40
2018-11-11T22:47:34.753Z,70.40
2018-11-11T22:50:03.083Z,70.40
2018-11-11T22:52:31.481Z,70.30
2018-11-11T22:54:59.750Z,70.40
2018-11-11T22:57:28.068Z,70.30
2018-11-11T22:59:56.467Z,70.30
2018-11-11T23:02:24.766Z,70.40
2018-11-11T23:04:53.058Z,70.40
2018-11-11T23:07:21.642Z,70.40
2018-11-11T23:09:49.934Z,70.50
2018-11-11T23:12:18.282Z,70.40
2018-11-11T23:14:46.584Z,70.40
2018-11-11T23:17:14.922Z,70.40
2018-11-11T23:19:43.231Z,70.40
2018-11-11T23:22:11.601Z,70.50
2018-11-11T23:24:39.886Z,70.50
2018-11-11T23:27:08.186Z,70.50
2018-11-11T23:29:36.506Z,70.50
2018-11-11T23:32:04.832Z,70.50
2018-11-11T23:34:33.172Z,70.50
2018-11-11T23:37:01.575Z,70.50
2018-11-11T23:39:29.840Z,70.50
2018-11-11T23:41:58.183Z,70.50
2018-11-11T23:44:26.514Z,70.40
2018-11-11T23:46:54.821Z,71.20
2018-11-11T23:49:23.183Z,70.40
2018-11-11T23:51:51.479Z,70.50
2018-11-11T23:54:19.828Z,70.50
2018-11-11T23:56:48.126Z,70.40
2018-11-11T23:59:16.422Z,70.40
